createdAt,value
2022-11-17T00:01:07.562Z,5.90
2022-11-17T00:03:36.338Z,5.70
2022-11-17T00:06:06.556Z,5.60
2022-11-17T00:08:34.038Z,6.00
2022-11-17T00:11:01.720Z,5.20
2022-11-17T00:13:47.242Z,5.90
2022-11-17T00:16:19.515Z,5.60
2022-11-17T00:19:05.209Z,5.40
2022-11-17T00:21:33.072Z,5.80
2022-11-17T00:24:01.015Z,5.50
2022-11-17T00:26:34.636Z,5.60
2022-11-17T00:29:06.229Z,6.10
2022-11-17T00:31:55.661Z,5.60
2022-11-17T00:34:22.978Z,5.50
2022-11-17T00:36:52.177Z,5.30
2022-11-17T00:39:21.921Z,5.60
2022-11-17T00:41:49.758Z,5.90
2022-11-17T00:44:27.411Z,5.60
2022-11-17T00:46:56.114Z,5.90
2022-11-17T00:49:26.231Z,5.40
2022-11-17T00:51:55.340Z,6.30
2022-11-17T00:54:24.257Z,6.00
2022-11-17T00:56:59.946Z,5.60
2022-11-17T00:59:32.298Z,5.70
2022-11-17T01:02:02.864Z,5.60
2022-11-17T01:04:31.633Z,5.80
2022-11-17T01:07:04.873Z,3.00
2022-11-17T01:18:11.491Z,6.40
2022-11-17T01:20:44.219Z,5.70
2022-11-17T01:23:13.981Z,5.70
2022-11-17T01:25:47.712Z,5.50
2022-11-17T01:28:16.943Z,5.50
2022-11-17T01:30:48.670Z,5.70
2022-11-17T01:33:25.991Z,5.50
2022-11-17T01:36:04.963Z,5.60
2022-11-17T01:38:36.509Z,5.30
2022-11-17T01:41:09.041Z,5.30
2022-11-17T02:10:00.775Z,5.10
2022-11-17T02:15:36.566Z,5.20
2022-11-17T02:18:12.462Z,6.20
2022-11-17T02:20:58.483Z,5.60
2022-11-17T02:23:54.719Z,5.40
2022-11-17T02:26:40.532Z,5.10
2022-11-17T02:29:49.345Z,5.20
2022-11-17T02:32:25.103Z,6.10
2022-11-17T02:35:25.412Z,5.30
2022-11-17T02:38:29.000Z,5.40
2022-11-17T02:41:11.600Z,4.60
2022-11-17T02:44:12.937Z,4.80
2022-11-17T02:46:57.289Z,5.20
2022-11-17T02:49:34.522Z,5.10
2022-11-17T02:52:02.429Z,5.00
2022-11-17T02:54:30.148Z,5.00
2022-11-17T02:56:57.464Z,5.00
2022-11-17T02:59:40.733Z,5.10
2022-11-17T03:02:08.889Z,5.40
2022-11-17T03:04:45.060Z,5.40
2022-11-17T03:07:24.057Z,5.00
2022-11-17T03:10:02.009Z,4.80
2022-11-17T03:12:32.138Z,3.50
2022-11-17T03:15:03.356Z,5.00
2022-11-17T03:17:41.583Z,5.20
2022-11-17T03:20:42.240Z,5.90
2022-11-17T03:23:19.992Z,5.10
2022-11-17T03:25:47.969Z,4.90
2022-11-17T03:28:17.386Z,4.90
2022-11-17T03:30:45.171Z,4.90
2022-11-17T03:33:20.362Z,4.90
2022-11-17T03:35:55.304Z,5.00
2022-11-17T03:38:24.291Z,4.90
2022-11-17T03:40:51.547Z,3.20
2022-11-17T03:43:22.309Z,4.90
2022-11-17T03:45:50.693Z,6.10
2022-11-17T03:48:24.800Z,5.10
2022-11-17T03:50:59.816Z,5.10
2022-11-17T03:56:31.431Z,5.10
2022-11-17T04:01:43.485Z,4.80
2022-11-17T04:04:14.639Z,5.50
2022-11-17T04:06:45.038Z,3.20
2022-11-17T04:09:12.814Z,5.30
2022-11-17T04:11:59.480Z,4.80
2022-11-17T04:14:45.925Z,5.10
2022-11-17T04:17:14.769Z,4.80
2022-11-17T04:19:54.769Z,5.20
2022-11-17T04:22:22.778Z,6.70
2022-11-17T04:24:54.156Z,4.80
2022-11-17T04:27:40.011Z,4.50
2022-11-17T04:30:09.472Z,5.00
2022-11-17T04:32:40.293Z,4.90
2022-11-17T04:35:10.968Z,4.00
2022-11-17T04:37:42.405Z,4.90
2022-11-17T04:40:13.956Z,4.50
2022-11-17T04:42:45.551Z,4.50
2022-11-17T04:45:13.332Z,4.10
2022-11-17T04:47:41.132Z,4.80
2022-11-17T04:50:11.056Z,4.90
2022-11-17T04:52:42.588Z,4.70
2022-11-17T04:55:12.855Z,5.00
2022-11-17T05:00:36.048Z,4.70
2022-11-17T05:03:07.629Z,4.70
2022-11-17T05:52:48.038Z,5.90
2022-11-17T05:58:06.858Z,5.30
2022-11-17T06:00:48.879Z,4.60
2022-11-17T06:06:50.075Z,4.90
2022-11-17T06:16:56.132Z,5.10
2022-11-17T06:19:35.140Z,4.90
2022-11-17T06:22:13.735Z,4.30
2022-11-17T06:24:44.169Z,4.80
2022-11-17T06:27:12.470Z,4.40
2022-11-17T06:29:49.678Z,4.40
2022-11-17T06:32:29.896Z,5.10
2022-11-17T06:35:02.874Z,3.20
2022-11-17T06:37:31.020Z,4.50
2022-11-17T06:40:23.320Z,4.50
2022-11-17T06:43:07.739Z,4.60
2022-11-17T06:46:01.163Z,4.90
2022-11-17T06:51:20.078Z,4.60
2022-11-17T06:53:46.895Z,4.30
2022-11-17T06:56:14.905Z,4.70
2022-11-17T06:58:41.846Z,4.50
2022-11-17T07:01:10.079Z,4.50
2022-11-17T07:03:49.162Z,4.40
2022-11-17T07:06:40.909Z,4.40
2022-11-17T07:14:54.430Z,4.40
2022-11-17T10:10:36.021Z,6.40
2022-11-17T13:33:11.650Z,5.30
2022-11-17T13:42:51.135Z,5.10
2022-11-17T13:48:04.389Z,5.60
2022-11-17T13:53:13.550Z,5.30
2022-11-17T13:55:47.961Z,5.50
2022-11-17T14:46:48.725Z,5.00
2022-11-17T15:32:53.080Z,4.10
2022-11-17T15:35:44.214Z,4.20
2022-11-17T15:40:56.702Z,4.00
2022-11-17T16:13:36.671Z,5.10
2022-11-17T16:22:34.671Z,3.80
2022-11-17T16:25:01.501Z,2.80
2022-11-17T16:27:28.268Z,4.10
2022-11-17T16:30:01.384Z,3.80
2022-11-17T16:35:15.844Z,4.20
2022-11-17T16:47:41.395Z,3.00
2022-11-17T16:50:36.303Z,4.50
2022-11-17T17:13:02.715Z,4.70
2022-11-17T17:15:31.934Z,4.10
2022-11-17T17:17:59.374Z,5.70
2022-11-17T17:20:34.416Z,3.60
2022-11-17T17:23:03.229Z,4.00
2022-11-17T17:25:30.192Z,3.70
2022-11-17T17:37:26.512Z,3.00
2022-11-17T18:11:43.301Z,2.60
2022-11-17T18:14:14.353Z,3.30
2022-11-17T18:39:16.873Z,2.50
2022-11-17T18:45:24.371Z,2.20
2022-11-17T18:51:25.836Z,0.60
2022-11-17T19:07:00.514Z,2.30
2022-11-17T19:12:46.488Z,1.10
2022-11-17T19:15:14.615Z,2.40
2022-11-17T19:20:22.189Z,2.30
2022-11-17T19:28:31.370Z,2.50
2022-11-17T19:37:18.562Z,2.10
2022-11-17T19:58:17.617Z,2.20
2022-11-17T20:07:55.594Z,2.30
2022-11-17T20:10:25.874Z,2.30
2022-11-17T20:12:54.290Z,4.40
2022-11-17T20:15:33.959Z,2.10
2022-11-17T20:18:03.892Z,2.10
2022-11-17T20:20:30.685Z,2.00
2022-11-17T20:22:59.634Z,2.20
2022-11-17T20:25:30.930Z,2.10
2022-11-17T20:27:57.701Z,2.20
2022-11-17T20:30:28.186Z,2.70
2022-11-17T20:32:57.959Z,2.70
2022-11-17T20:35:26.338Z,2.10
2022-11-17T20:40:34.263Z,2.20
2022-11-17T20:43:02.361Z,2.10
2022-11-17T20:45:29.330Z,2.30
2022-11-17T20:47:56.373Z,2.30
2022-11-17T20:53:10.200Z,2.00
2022-11-17T20:55:38.517Z,2.10
2022-11-17T20:58:09.014Z,2.30
2022-11-17T21:00:35.972Z,2.20
2022-11-17T21:03:05.014Z,2.20
2022-11-17T21:05:36.057Z,2.20
2022-11-17T21:08:03.036Z,2.20
2022-11-17T21:10:30.199Z,2.30
2022-11-17T21:12:57.554Z,2.40
2022-11-17T21:15:27.362Z,2.20
2022-11-17T21:18:15.089Z,3.00
2022-11-17T21:20:43.136Z,2.20
2022-11-17T21:23:17.622Z,2.10
2022-11-17T21:25:48.222Z,2.60
2022-11-17T21:28:21.172Z,2.30
2022-11-17T21:30:48.101Z,2.30
2022-11-17T21:33:20.696Z,2.10
2022-11-17T21:38:37.062Z,2.10
2022-11-17T21:41:51.829Z,2.40
2022-11-17T21:44:18.772Z,2.30
2022-11-17T21:46:45.797Z,2.20
2022-11-17T21:49:12.653Z,2.20
2022-11-17T21:52:07.682Z,2.10
2022-11-17T21:54:45.980Z,2.20
2022-11-17T21:57:14.452Z,2.30
2022-11-17T21:59:42.089Z,2.20
2022-11-17T22:02:10.635Z,2.10
2022-11-17T22:04:37.554Z,2.10
2022-11-17T22:07:04.549Z,2.30
2022-11-17T22:09:31.396Z,2.20
2022-11-17T22:11:58.879Z,2.20
2022-11-17T22:14:53.109Z,2.30
2022-11-17T22:21:11.578Z,2.50
2022-11-17T22:23:42.686Z,2.40
2022-11-17T22:26:12.110Z,2.50
2022-11-17T22:29:22.659Z,2.20
2022-11-17T22:35:15.171Z,0.00
2022-11-17T22:37:43.715Z,2.30
2022-11-17T22:40:13.730Z,1.70
2022-11-17T22:42:40.727Z,2.30
2022-11-17T22:45:09.304Z,2.20
2022-11-17T22:47:50.389Z,2.40
2022-11-17T22:50:18.749Z,2.20
2022-11-17T22:53:07.414Z,0.80
2022-11-17T22:55:38.093Z,2.20
2022-11-17T22:58:07.961Z,2.60
2022-11-17T23:00:44.938Z,2.30
2022-11-17T23:03:23.005Z,2.30
2022-11-17T23:05:53.039Z,2.30
2022-11-17T23:08:21.588Z,2.40
2022-11-17T23:10:49.592Z,2.30
2022-11-17T23:13:16.412Z,2.40
2022-11-17T23:15:44.438Z,2.40
2022-11-17T23:18:11.654Z,2.90
2022-11-17T23:20:38.475Z,2.40
2022-11-17T23:23:06.329Z,2.30
2022-11-17T23:25:34.709Z,2.30
2022-11-17T23:28:03.145Z,2.30
2022-11-17T23:30:30.231Z,2.30
2022-11-17T23:32:58.069Z,2.80
2022-11-17T23:35:24.905Z,2.40
2022-11-17T23:37:55.976Z,2.40
2022-11-17T23:40:22.961Z,5.50
2022-11-17T23:46:25.065Z,2.70
2022-11-17T23:51:37.863Z,2.40
